Airfield :
LOGIN :

Register | Disclaimer

   EN    FR    IT 

 










Legend :    VFR   Marginal VFR   IFR   Intensive IFR   Very Intensive IFR
Visi :
Ceiling :
>= 8 km
>= 3000ft
5 to 8 km
1000 to 3000 ft
1500m to 5 km
500 to 1000 ft
800 to 1500m
200 to 500 ft
< 800m
< 200 ft
Symbols :   Thunderstorms  Fog  Heavy snow  Heavy precipitations  Wind > 20 kt
SIGMETs :     Misc.  Thunderstorms  Icing  Turbulence  Mountain Waves  Volcanic Ashes






- Airport Elevation : 1585 ft
- IATA code : SIR


LSGS - Sion

CURRENT METAR :
  • 021050Z 20003KT 120V290 CAVOK 26/11 Q1020

EXPIRED METARs :
  • 021020Z VRB02KT CAVOK 25/11 Q1020
  • 020950Z VRB01KT CAVOK 24/10 Q1021
  • 020920Z VRB04KT CAVOK 23/11 Q1021
  • 020850Z VRB03KT CAVOK 22/10 Q1021
  • 020820Z 07004KT 020V110 CAVOK 21/11 Q1022
  • 012150Z AUTO 08004KT 030V100 CAVOK 17/10 Q1022

TAF TAF LSGS
Valid from the 02 at 09:00 until the 02 at 18:00 UTC


020825Z 0209/0218 07005KT CAVOK
BECMG 0210/0212 25015KT 9999 FEW080



MET'MAP, your aeronautical weather chart ! - Copyright ORBIFLY December 2007 - Disclaimer

ORBIFLY MET'MAP TEAM :

Programming & Development : Alexandra Zaïnal
Original concept : Baudouin d'Aumeries
Technical & hardware support : Manuel Goepfert
Assistance : Marc-Olivier Méhu




SOURCES & CREDITS :

   NOAA